PROFILE

 METAR AND TAF INFORMATION
ADDS - METARS form results

(0949 UTC 18 May 2022)
http://aviationweather.gov/metar/data/
 
SBRJ 180900Z 26009KT 9999 FEW008 18/06 Q1008
SBRJ 180850Z 24007KT 9999 FEW008 18/07 Q1008
TAF SBRJ 180427Z 1806/1818 27005KT 8000 SCT023 TN17/1809Z TX23/1818Z BECMG 1806/1809 30007KT BECMG 1810/1813 27012KT BECMG 1815/1817 21012KT RMK PHC 

 AIRPORT MAP

 RUNWAY INFORMATION
Runway 02R Runway length 4341 ft Runway width 138 ft
Runway elevation 0 ft Runway displaced threshold 0 ft Runway heading 0
Runway 20L Runway length 4341 ft Runway width 138 ft
Runway elevation 0 ft Runway displaced threshold 0 ft Runway heading 0
Runway 02L Runway length 4134 ft Runway width 98 ft
Runway elevation 0 ft Runway displaced threshold 0 ft Runway heading 0
Runway 20R Runway length 4134 ft Runway width 98 ft
Runway elevation 0 ft Runway displaced threshold 0 ft Runway heading 0

 AIRPORT FREQUENCIES
Type APP Name RIO CON Frequency 119.35 MHZ
Type ATIS Name ATIS Frequency 132.65 MHZ
Type CLD Name TFC Frequency 121.05 MHZ
Type GND Name GND Frequency 121.7 MHZ
Type TWR Name RIO TWR Frequency 118.7 MHZ

 AIRPORT NEAR NAVIGATION AIDS
Type NDB Name Paiol Frequency 415 KHZ